KSHL

Details ICAO KSHL
Name SHELDON MUNI
Region United States
Timezone America/Chicago (UTC-6.0)
Plans Departing 1
Arriving 0
Stats Elevation 1,419 ft / 433 m (AMSL)
Location 43.208388° -95.833427°
Runways 1
Magnetic Variation 2.386° E
Sunrise 2017-12-14 13:49:16 UTC / 2017-12-14 07:49:16 Local
Sunset 2017-12-14 22:49:49 UTC / 2017-12-14 16:49:49 Local
Advertisement - Login to hide

Runways

ID Width Length Bearing (true) Bearing (mag) Surface Threshold Offset Overrun Length
15 75 ft / 23 m 4,200 ft / 1,280 m 155.51° 153.12° Concrete 0 ft / 0 m 0 ft / 0 m
33 75 ft / 23 m 4,200 ft / 1,280 m 335.51° 333.12° Concrete 0 ft / 0 m 0 ft / 0 m

Map

Weather


0- 5 10 15 20 25 30 35+ Temperature / ° C

Clouds and Precipitation
Forecast for 2017-12-15 06:00 UTC. Updated an hour ago

Ground ~20,000 ft ~40,000 ft Winds

METAR

KSHL 150555Z AUTO 27007KT 10SM OVC039 M03/M05 A3005 RMK AO2

TAF

Not found

Frequencies

Recorded 119.77 MHz AWOS 3
Unicom 122.80 MHz CTAF/UNICOM
Warning: Do not use this data for real-world aviation or navigation. No guarantee of current accuracy is given.